Tobago, Trinidad and Tobago
Current Conditions -  °F | °C
As of 2:00 PM on Thursday 20 Nov 2014 (Local Time) from TTCP Reporting Station
Scattered Clouds Scattered Clouds  
Wind Chill: 26°   Ceiling: Unl
Heat Index: 28°   Visibility: 6mi
Dew Point: 24°   Wind: 12mph
Humidity: 89%   Direction: 90°E
Pressure: 29.85"   Gusts: NA
Location:  11.22°N, 60.67°W
Report Text: TTCP 201800Z 09010KT 9999 SCT015 26/24 Q1011 RMK JPE SE S
Loading
Personal Weather Stations






























Interactive Weather Map New forecast layout! Learn more

10-Day Weather Forecast

Advertisements
Track Severe Weather on mobile